Time;durP1;ratioP1;P1;durP2;ratioP2;P2;SDS_P1;SDS_P2;PMS_P1;PMS_P2;Temp;Humidity;BMP_temperature;BMP_pressure;BME280_temperature;BME280_humidity;BME280_pressure;Samples;Min_cycle;Max_cycle;Signal;HPM_P1;HPM_P2
2022/10/23 00:02:20;;;;;;;;;;;18.90;97.30;;;;;;4956296;29;20309;-64
2022/10/23 00:04:49;;;;;;;;;;;18.60;97.20;;;;;;4957111;29;19934;-64
2022/10/23 00:07:14;;;;;;;;;;;18.80;97.20;;;;;;4954983;28;20388;-65
2022/10/23 00:09:40;;;;;;;;;;;18.90;97.20;;;;;;4956414;29;19933;-64
2022/10/23 00:12:05;;;;;;;;;;;19.00;97.20;;;;;;4958661;28;20385;-65
2022/10/23 00:14:31;;;;;;;;;;;19.00;97.20;;;;;;4956096;29;19926;-65
2022/10/23 00:16:57;;;;;;;;;;;18.70;97.10;;;;;;4956170;29;19986;-64
2022/10/23 00:19:22;;;;;;;;;;;18.50;97.10;;;;;;4956750;29;19926;-64
2022/10/23 00:21:48;;;;;;;;;;;18.80;97.10;;;;;;4943101;29;20265;-64
2022/10/23 00:24:13;;;;;;;;;;;18.80;97.10;;;;;;4955717;28;19930;-65
2022/10/23 00:26:39;;;;;;;;;;;19.00;97.20;;;;;;4955661;28;19969;-64
2022/10/23 00:29:05;;;;;;;;;;;18.70;97.10;;;;;;4955866;28;19939;-64
2022/10/23 00:31:31;;;;;;;;;;;18.70;97.10;;;;;;4954879;28;20396;-64
2022/10/23 00:33:56;;;;;;;;;;;18.80;97.10;;;;;;4955758;29;19937;-64
2022/10/23 00:36:22;;;;;;;;;;;19.10;97.10;;;;;;4956088;29;19974;-63
2022/10/23 00:38:48;;;;;;;;;;;18.90;97.10;;;;;;4956054;29;19939;-64
2022/10/23 00:41:23;;;;;;;;;;;18.90;97.10;;;;;;4955984;28;19926;-66
2022/10/23 00:43:55;;;;;;;;;;;18.90;97.10;;;;;;4955078;28;20321;-65
2022/10/23 00:46:20;;;;;;;;;;;18.70;97.10;;;;;;4966843;28;19926;-65
2022/10/23 00:48:46;;;;;;;;;;;18.90;97.10;;;;;;4971684;28;20339;-65
2022/10/23 00:51:11;;;;;;;;;;;18.90;97.20;;;;;;4955918;29;19930;-65
2022/10/23 00:53:37;;;;;;;;;;;18.90;97.10;;;;;;4954949;28;19932;-65
2022/10/23 00:56:03;;;;;;;;;;;18.70;97.00;;;;;;4955132;28;20300;-64
2022/10/23 00:58:28;;;;;;;;;;;18.60;97.00;;;;;;4955558;29;19926;-65
2022/10/23 01:00:54;;;;;;;;;;;18.60;97.00;;;;;;4955771;29;19923;-64
2022/10/23 01:03:21;;;;;;;;;;;18.70;97.00;;;;;;4963868;28;20376;-64
2022/10/23 01:05:48;;;;;;;;;;;18.70;97.10;;;;;;4952999;29;19926;-64
2022/10/23 01:08:19;;;;;;;;;;;18.80;97.10;;;;;;4931265;29;19961;-65
2022/10/23 01:10:53;;;;;;;;;;;18.40;97.00;;;;;;4936666;29;19986;-65
2022/10/23 01:13:34;;;;;;;;;;;18.70;97.00;;;;;;4935516;29;19934;-64
2022/10/23 01:16:03;;;;;;;;;;;18.70;97.00;;;;;;4950965;28;20013;-64
2022/10/23 01:18:28;;;;;;;;;;;18.90;97.10;;;;;;4955679;29;19930;-64
2022/10/23 01:20:56;;;;;;;;;;;18.80;97.00;;;;;;4955899;28;20408;-64
2022/10/23 01:23:22;;;;;;;;;;;;;;;;;;4952921;28;19981;-63
2022/10/23 01:25:50;;;;;;;;;;;18.80;97.00;;;;;;4955057;29;19937;-65
2022/10/23 01:28:20;;;;;;;;;;;18.90;96.70;;;;;;4954494;28;19933;-65
2022/10/23 01:30:45;;;;;;;;;;;18.70;97.00;;;;;;4938460;29;20380;-65
2022/10/23 01:33:16;;;;;;;;;;;18.70;97.00;;;;;;4955566;29;20017;-65
2022/10/23 01:35:44;;;;;;;;;;;18.80;97.00;;;;;;4937345;29;19974;-64
2022/10/23 01:38:11;;;;;;;;;;;18.70;97.00;;;;;;4921162;29;19926;-65
2022/10/23 01:40:44;;;;;;;;;;;18.80;97.00;;;;;;4936699;29;19923;-65
2022/10/23 01:43:19;;;;;;;;;;;18.60;96.90;;;;;;4934971;29;20364;-65
2022/10/23 01:45:47;;;;;;;;;;;18.70;96.90;;;;;;4943774;28;20325;-66
2022/10/23 01:48:14;;;;;;;;;;;18.30;96.80;;;;;;4938468;29;20051;-64
2022/10/23 01:50:40;;;;;;;;;;;18.50;96.80;;;;;;4938289;29;19927;-65
2022/10/23 01:53:05;;;;;;;;;;;18.50;96.80;;;;;;4925593;28;19934;-64
2022/10/23 01:55:31;;;;;;;;;;;18.90;96.90;;;;;;4976350;28;19930;-65
2022/10/23 01:57:57;;;;;;;;;;;18.70;96.90;;;;;;4958714;29;20009;-65
2022/10/23 02:00:22;;;;;;;;;;;18.70;96.90;;;;;;4941718;29;19927;-65
2022/10/23 02:02:48;;;;;;;;;;;18.60;96.80;;;;;;4941305;29;20296;-64
2022/10/23 02:05:23;;;;;;;;;;;18.70;96.80;;;;;;4941667;29;19933;-63
2022/10/23 02:07:49;;;;;;;;;;;18.70;96.40;;;;;;4957747;28;19932;-64
2022/10/23 02:10:15;;;;;;;;;;;18.80;96.90;;;;;;4927076;28;19926;-65
2022/10/23 02:12:59;;;;;;;;;;;18.50;96.80;;;;;;4941543;29;20394;-65
2022/10/23 02:15:29;;;;;;;;;;;18.60;96.80;;;;;;4958898;29;19927;-64
2022/10/23 02:18:14;;;;;;;;;;;18.90;96.90;;;;;;4956291;28;19926;-64
2022/10/23 02:20:41;;;;;;;;;;;18.50;96.80;;;;;;4941004;29;19934;-65
2022/10/23 02:23:18;;;;;;;;;;;18.60;96.80;;;;;;4940992;29;19926;-65
2022/10/23 02:25:52;;;;;;;;;;;18.70;96.80;;;;;;4957177;28;20017;-65
2022/10/23 02:28:19;;;;;;;;;;;18.50;96.80;;;;;;4942774;29;19936;-66
2022/10/23 02:30:44;;;;;;;;;;;18.70;96.80;;;;;;4941183;29;19934;-65
2022/10/23 02:33:10;;;;;;;;;;;18.80;96.90;;;;;;4941153;29;20324;-63
2022/10/23 02:35:35;;;;;;;;;;;18.50;96.80;;;;;;4940825;29;19926;-65
2022/10/23 02:38:01;;;;;;;;;;;18.60;96.80;;;;;;4957161;28;19927;-64
2022/10/23 02:40:32;;;;;;;;;;;18.60;96.80;;;;;;4957934;29;19929;-64
2022/10/23 02:43:02;;;;;;;;;;;18.80;96.90;;;;;;4941812;29;20286;-64
2022/10/23 02:45:35;;;;;;;;;;;18.60;96.80;;;;;;4969995;28;19933;-65
2022/10/23 02:48:07;;;;;;;;;;;18.40;96.80;;;;;;4960021;28;19926;-65
2022/10/23 02:50:32;;;;;;;;;;;18.70;96.80;;;;;;4943876;29;19926;-68
2022/10/23 02:53:02;;;;;;;;;;;18.50;96.80;;;;;;4958449;29;19937;-65
2022/10/23 02:55:43;;;;;;;;;;;18.60;96.80;;;;;;4940776;29;20396;-66
2022/10/23 02:58:15;;;;;;;;;;;18.60;96.80;;;;;;4957836;29;19927;-65
2022/10/23 03:00:41;;;;;;;;;;;18.40;96.80;;;;;;4956745;28;20345;-65
2022/10/23 03:03:09;;;;;;;;;;;18.40;96.80;;;;;;4973956;28;19982;-65
2022/10/23 03:05:35;;;;;;;;;;;18.90;97.10;;;;;;4959214;28;19929;-65
2022/10/23 03:08:04;;;;;;;;;;;18.50;96.80;;;;;;4959619;28;20012;-65
2022/10/23 03:10:30;;;;;;;;;;;18.60;96.80;;;;;;4954193;29;19983;-65
2022/10/23 03:12:55;;;;;;;;;;;18.50;96.70;;;;;;4924942;29;19931;-65
2022/10/23 03:15:21;;;;;;;;;;;18.70;96.70;;;;;;4938317;29;19927;-64
2022/10/23 03:17:46;;;;;;;;;;;18.30;96.60;;;;;;4952398;29;19933;-65
2022/10/23 03:20:12;;;;;;;;;;;18.40;96.60;;;;;;4957598;28;20462;-65
2022/10/23 03:22:38;;;;;;;;;;;18.40;96.50;;;;;;4955741;28;19930;-63
2022/10/23 03:25:03;;;;;;;;;;;18.40;96.50;;;;;;4956162;29;19949;-65
2022/10/23 03:27:29;;;;;;;;;;;18.60;96.60;;;;;;4957757;29;19934;-65
2022/10/23 03:29:55;;;;;;;;;;;18.50;96.50;;;;;;4939753;29;19926;-65
2022/10/23 03:32:20;;;;;;;;;;;18.50;96.60;;;;;;4956193;28;20427;-65
2022/10/23 03:34:46;;;;;;;;;;;18.50;96.50;;;;;;4956799;29;20079;-64
2022/10/23 03:37:11;;;;;;;;;;;18.80;96.50;;;;;;4974841;28;19933;-64
2022/10/23 03:39:37;;;;;;;;;;;18.60;96.50;;;;;;4976331;28;19976;-64
2022/10/23 03:42:03;;;;;;;;;;;18.40;96.50;;;;;;4974607;28;20435;-63
2022/10/23 03:44:30;;;;;;;;;;;18.70;96.60;;;;;;4956787;29;20320;-65
2022/10/23 03:46:56;;;;;;;;;;;18.30;96.50;;;;;;4956796;29;19926;-65
2022/10/23 03:49:21;;;;;;;;;;;18.50;96.70;;;;;;4956494;29;19997;-64
2022/10/23 03:51:51;;;;;;;;;;;18.50;96.70;;;;;;4956685;29;20132;-67
2022/10/23 03:54:23;;;;;;;;;;;18.40;96.70;;;;;;4960830;28;20013;-66
2022/10/23 03:56:49;;;;;;;;;;;18.50;96.70;;;;;;4955342;28;19930;-66
2022/10/23 03:59:15;;;;;;;;;;;18.60;96.80;;;;;;4939285;29;20273;-66
2022/10/23 04:01:40;;;;;;;;;;;18.50;96.70;;;;;;4956127;29;19934;-67
2022/10/23 04:04:06;;;;;;;;;;;18.50;96.60;;;;;;4954929;28;19973;-68
2022/10/23 04:06:32;;;;;;;;;;;18.40;96.60;;;;;;4956434;29;19933;-66
2022/10/23 04:08:57;;;;;;;;;;;18.60;96.70;;;;;;4956625;28;20017;-67
2022/10/23 04:11:23;;;;;;;;;;;18.60;96.70;;;;;;4975259;28;20443;-65
2022/10/23 04:13:48;;;;;;;;;;;18.40;96.60;;;;;;4973038;28;19926;-63
2022/10/23 04:16:14;;;;;;;;;;;18.60;96.60;;;;;;4955539;28;19927;-64
2022/10/23 04:18:40;;;;;;;;;;;18.80;96.70;;;;;;4956679;29;19927;-65
2022/10/23 04:21:05;;;;;;;;;;;18.50;96.60;;;;;;4956031;29;20480;-66
2022/10/23 04:23:31;;;;;;;;;;;18.40;96.60;;;;;;4938808;29;19989;-65
2022/10/23 04:25:57;;;;;;;;;;;18.70;96.70;;;;;;4955151;28;20017;-65
2022/10/23 04:28:23;;;;;;;;;;;;;;;;;;4956238;28;19927;-65
2022/10/23 04:30:48;;;;;;;;;;;18.50;96.60;;;;;;4955908;29;20341;-66
2022/10/23 04:33:14;;;;;;;;;;;18.40;96.60;;;;;;4956205;29;19927;-66
2022/10/23 04:35:39;;;;;;;;;;;18.40;96.60;;;;;;4955110;28;19934;-65
2022/10/23 04:38:05;;;;;;;;;;;18.40;96.60;;;;;;4955872;29;19926;-66
2022/10/23 04:40:31;;;;;;;;;;;18.50;96.70;;;;;;4956017;29;19927;-66
2022/10/23 04:42:56;;;;;;;;;;;18.50;96.70;;;;;;4955717;28;19927;-66
2022/10/23 04:45:22;;;;;;;;;;;18.60;96.70;;;;;;4955539;29;19934;-65
2022/10/23 04:47:47;;;;;;;;;;;18.80;96.80;;;;;;4954819;28;19931;-66
2022/10/23 04:50:13;;;;;;;;;;;18.30;96.70;;;;;;4956441;29;20018;-65
2022/10/23 04:52:39;;;;;;;;;;;18.70;96.80;;;;;;4955913;29;20389;-65
2022/10/23 04:55:05;;;;;;;;;;;18.70;96.80;;;;;;4955610;29;19949;-72
2022/10/23 04:57:31;;;;;;;;;;;18.60;96.70;;;;;;4937973;29;19926;-65
2022/10/23 04:59:56;;;;;;;;;;;18.60;96.70;;;;;;4955928;28;20281;-66
2022/10/23 05:02:23;;;;;;;;;;;18.70;96.70;;;;;;4973426;28;19926;-65
2022/10/23 05:04:49;;;;;;;;;;;18.60;96.70;;;;;;4974796;28;19957;-64
2022/10/23 05:07:14;;;;;;;;;;;18.60;96.70;;;;;;4971624;28;20024;-65
2022/10/23 05:09:40;;;;;;;;;;;18.50;96.70;;;;;;4955658;29;20395;-66
2022/10/23 05:12:05;;;;;;;;;;;18.60;96.80;;;;;;4955795;29;19927;-65
2022/10/23 05:14:31;;;;;;;;;;;18.70;96.90;;;;;;4955456;29;20454;-65
2022/10/23 05:17:00;;;;;;;;;;;18.70;96.90;;;;;;4955640;28;19922;-66
2022/10/23 05:19:27;;;;;;;;;;;18.80;96.90;;;;;;4949394;28;20292;-64
2022/10/23 05:21:54;;;;;;;;;;;18.40;96.80;;;;;;4938935;29;19990;-65
2022/10/23 05:24:23;;;;;;;;;;;18.50;96.80;;;;;;4955961;29;20368;-65
2022/10/23 05:26:51;;;;;;;;;;;18.50;96.80;;;;;;4955864;28;19926;-66
2022/10/23 05:29:17;;;;;;;;;;;18.30;96.80;;;;;;4958427;28;19933;-65
2022/10/23 05:31:43;;;;;;;;;;;18.70;96.90;;;;;;4959351;29;19949;-65
2022/10/23 05:34:10;;;;;;;;;;;18.70;96.80;;;;;;4942436;28;20016;-64
2022/10/23 05:36:36;;;;;;;;;;;18.60;96.70;;;;;;4959606;29;19933;-67
2022/10/23 05:39:01;;;;;;;;;;;18.40;96.60;;;;;;4956296;28;19926;-66
2022/10/23 05:41:27;;;;;;;;;;;18.60;96.80;;;;;;4957962;28;19930;-65
2022/10/23 05:43:53;;;;;;;;;;;18.50;96.80;;;;;;4959180;29;19926;-65
2022/10/23 05:46:18;;;;;;;;;;;18.40;96.80;;;;;;4958972;29;19933;-65
2022/10/23 05:48:44;;;;;;;;;;;18.50;96.70;;;;;;4958626;29;19926;-64
2022/10/23 05:51:10;;;;;;;;;;;18.70;96.80;;;;;;4959989;28;19931;-64
2022/10/23 05:53:36;;;;;;;;;;;18.30;96.70;;;;;;4978005;28;19922;-65
2022/10/23 05:56:05;;;;;;;;;;;18.40;96.60;;;;;;4978272;28;19932;-65
2022/10/23 05:58:30;;;;;;;;;;;18.60;96.60;;;;;;4977907;28;19926;-65
2022/10/23 06:00:56;;;;;;;;;;;18.40;96.60;;;;;;4971291;28;19926;-64
2022/10/23 06:03:22;;;;;;;;;;;18.40;96.60;;;;;;4957827;28;20069;-65
2022/10/23 06:05:48;;;;;;;;;;;18.40;96.60;;;;;;4958701;29;19952;-65
2022/10/23 06:08:13;;;;;;;;;;;18.30;96.50;;;;;;4958829;28;19938;-65
2022/10/23 06:10:39;;;;;;;;;;;;;;;;;;4958629;29;19926;-65
2022/10/23 06:13:05;;;;;;;;;;;18.40;96.60;;;;;;4956501;28;20273;-65
2022/10/23 06:15:31;;;;;;;;;;;18.50;96.70;;;;;;4958499;29;19931;-65
2022/10/23 06:18:00;;;;;;;;;;;18.40;96.60;;;;;;4958402;29;19998;-64
2022/10/23 06:20:26;;;;;;;;;;;18.50;96.70;;;;;;4958191;29;19927;-65
2022/10/23 06:22:52;;;;;;;;;;;18.20;96.50;;;;;;4957439;28;19926;-70
2022/10/23 06:25:17;;;;;;;;;;;18.30;96.50;;;;;;4961204;28;20294;-65
2022/10/23 06:27:43;;;;;;;;;;;18.50;96.50;;;;;;4977385;28;19981;-65
2022/10/23 06:30:09;;;;;;;;;;;18.40;96.50;;;;;;4977536;28;20028;-65
2022/10/23 06:32:34;;;;;;;;;;;18.30;96.50;;;;;;4973162;28;19941;-65
2022/10/23 06:35:00;;;;;;;;;;;18.30;96.50;;;;;;4958172;29;19927;-64
2022/10/23 06:37:25;;;;;;;;;;;18.60;96.60;;;;;;4957734;28;20017;-64
2022/10/23 06:39:51;;;;;;;;;;;18.50;96.50;;;;;;4957935;29;20009;-64
2022/10/23 06:42:17;;;;;;;;;;;18.20;96.50;;;;;;4960536;28;19930;-64
2022/10/23 06:44:42;;;;;;;;;;;18.30;96.50;;;;;;4961357;28;19926;-65
2022/10/23 06:47:13;;;;;;;;;;;18.40;96.50;;;;;;4957881;29;19926;-65
2022/10/23 06:49:38;;;;;;;;;;;18.30;96.50;;;;;;4957870;29;20017;-66
2022/10/23 06:52:04;;;;;;;;;;;18.50;96.50;;;;;;4957601;29;20009;-66
2022/10/23 06:54:29;;;;;;;;;;;18.30;96.50;;;;;;4956540;28;19926;-65
2022/10/23 06:56:55;;;;;;;;;;;18.60;96.60;;;;;;4957261;28;19937;-65
2022/10/23 06:59:21;;;;;;;;;;;18.60;96.60;;;;;;4958341;28;19948;-66
2022/10/23 07:01:46;;;;;;;;;;;18.50;96.60;;;;;;4957513;29;20436;-65
2022/10/23 07:04:15;;;;;;;;;;;18.50;96.60;;;;;;4956789;28;19933;-65
2022/10/23 07:06:41;;;;;;;;;;;18.30;96.60;;;;;;4956823;28;19945;-66
2022/10/23 07:09:06;;;;;;;;;;;18.60;96.60;;;;;;4957013;28;19926;-65
2022/10/23 07:11:32;;;;;;;;;;;18.70;96.60;;;;;;4957567;29;19966;-66
2022/10/23 07:13:58;;;;;;;;;;;18.70;96.60;;;;;;4957558;29;20403;-66
2022/10/23 07:16:23;;;;;;;;;;;18.70;96.60;;;;;;4955881;28;20384;-66
2022/10/23 07:18:52;;;;;;;;;;;18.60;96.50;;;;;;4957121;29;19973;-65
2022/10/23 07:21:18;;;;;;;;;;;18.30;96.50;;;;;;4955927;29;19926;-67
2022/10/23 07:23:43;;;;;;;;;;;18.70;96.50;;;;;;4956595;28;19931;-65
2022/10/23 07:26:10;;;;;;;;;;;;;;;;;;4955833;28;19927;-65
2022/10/23 07:28:35;;;;;;;;;;;18.50;96.50;;;;;;4956340;28;19926;-65
2022/10/23 07:31:01;;;;;;;;;;;18.80;96.50;;;;;;4957199;29;20271;-65
2022/10/23 07:33:26;;;;;;;;;;;18.60;96.40;;;;;;4957377;28;19982;-66
2022/10/23 07:35:52;;;;;;;;;;;18.50;96.40;;;;;;4955854;28;19932;-65
2022/10/23 07:38:18;;;;;;;;;;;18.60;96.40;;;;;;4956698;29;19926;-65
2022/10/23 07:40:43;;;;;;;;;;;18.70;96.40;;;;;;4957040;29;19927;-66
2022/10/23 07:43:09;;;;;;;;;;;;;;;;;;4956456;28;19926;-60
2022/10/23 07:45:35;;;;;;;;;;;18.70;96.40;;;;;;4956097;29;20005;-65
2022/10/23 07:48:01;;;;;;;;;;;18.60;96.30;;;;;;4955460;29;19927;-65
2022/10/23 07:50:26;;;;;;;;;;;18.50;96.20;;;;;;4959499;28;19980;-65
2022/10/23 07:52:52;;;;;;;;;;;18.60;96.20;;;;;;4976088;28;19926;-65
2022/10/23 07:55:17;;;;;;;;;;;18.60;96.20;;;;;;4963016;28;19926;-65
2022/10/23 07:57:43;;;;;;;;;;;18.70;96.20;;;;;;4956735;29;19927;-66
2022/10/23 08:00:09;;;;;;;;;;;18.80;96.20;;;;;;4956355;29;20020;-65
2022/10/23 08:02:35;;;;;;;;;;;18.80;96.20;;;;;;4939206;29;20005;-65
2022/10/23 08:05:01;;;;;;;;;;;;;;;;;;4955042;28;19949;-64
2022/10/23 08:07:26;;;;;;;;;;;18.50;96.00;;;;;;4953423;28;19926;-64
2022/10/23 08:09:52;;;;;;;;;;;18.60;96.00;;;;;;4954948;28;19934;-64
2022/10/23 08:12:17;;;;;;;;;;;18.80;96.10;;;;;;4956469;29;19974;-65
2022/10/23 08:14:43;;;;;;;;;;;18.50;96.00;;;;;;4956019;29;19933;-65
2022/10/23 08:17:10;;;;;;;;;;;18.60;96.00;;;;;;4954748;28;19927;-65
2022/10/23 08:19:35;;;;;;;;;;;18.50;96.00;;;;;;4956349;29;19934;-66
2022/10/23 08:22:04;;;;;;;;;;;18.90;96.00;;;;;;4955881;29;20296;-65
2022/10/23 08:24:29;;;;;;;;;;;18.80;96.00;;;;;;4956866;28;19933;-65
2022/10/23 08:26:55;;;;;;;;;;;18.80;96.00;;;;;;4955281;28;20008;-65
2022/10/23 08:29:20;;;;;;;;;;;18.90;96.00;;;;;;4956132;29;19933;-65
2022/10/23 08:31:46;;;;;;;;;;;18.80;95.90;;;;;;4956198;29;19990;-65
2022/10/23 08:34:12;;;;;;;;;;;18.60;95.80;;;;;;4955368;28;19927;-66
2022/10/23 08:36:38;;;;;;;;;;;18.60;95.80;;;;;;4954936;28;20072;-65
2022/10/23 08:39:03;;;;;;;;;;;18.80;95.90;;;;;;4955974;29;19926;-67
2022/10/23 08:41:32;;;;;;;;;;;18.70;95.80;;;;;;4960284;28;20028;-67
2022/10/23 08:44:24;;;;;;;;;;;18.90;95.70;;;;;;4966260;28;19930;-69
2022/10/23 08:46:52;;;;;;;;;;;18.70;95.50;;;;;;4950874;29;19981;-67
2022/10/23 08:49:33;;;;;;;;;;;18.70;95.50;;;;;;4937664;29;19969;-67
2022/10/23 08:51:59;;;;;;;;;;;18.70;95.50;;;;;;4955654;29;19930;-67
2022/10/23 08:54:32;;;;;;;;;;;18.90;95.50;;;;;;4955357;28;20287;-68
2022/10/23 08:57:00;;;;;;;;;;;18.50;95.40;;;;;;4938856;29;19927;-70
2022/10/23 08:59:36;;;;;;;;;;;18.40;95.40;;;;;;4949353;28;19983;-68
2022/10/23 09:02:20;;;;;;;;;;;18.80;95.60;;;;;;4977583;28;19926;-67
2022/10/23 09:04:46;;;;;;;;;;;18.70;95.60;;;;;;4979295;28;19930;-66
2022/10/23 09:07:25;;;;;;;;;;;18.50;95.60;;;;;;4961628;28;19933;-69
2022/10/23 09:09:59;;;;;;;;;;;18.70;95.70;;;;;;4958428;29;19974;-67
2022/10/23 09:12:25;;;;;;;;;;;18.50;95.70;;;;;;4959724;29;19926;-80
2022/10/23 09:14:51;;;;;;;;;;;18.70;95.70;;;;;;4958128;28;19927;-76
2022/10/23 09:17:32;;;;;;;;;;;18.60;95.80;;;;;;4958149;28;19986;-66
2022/10/23 09:20:18;;;;;;;;;;;18.70;95.80;;;;;;4958377;28;19926;-66
2022/10/23 09:22:44;;;;;;;;;;;18.30;95.80;;;;;;4958727;29;19927;-68
2022/10/23 09:25:10;;;;;;;;;;;18.70;95.90;;;;;;4942404;29;20328;-69
2022/10/23 09:27:36;;;;;;;;;;;18.50;95.90;;;;;;4958553;28;19927;-68
2022/10/23 09:30:02;;;;;;;;;;;18.70;96.00;;;;;;4957994;29;19927;-79
2022/10/23 09:32:32;;;;;;;;;;;18.70;96.00;;;;;;4963322;28;19933;-76
2022/10/23 09:34:58;;;;;;;;;;;18.90;96.00;;;;;;4978570;28;19926;-72
2022/10/23 09:37:27;;;;;;;;;;;18.60;95.90;;;;;;4950472;29;19949;-67
2022/10/23 09:40:00;;;;;;;;;;;18.70;95.90;;;;;;4955912;28;19926;-70
2022/10/23 09:42:26;;;;;;;;;;;18.90;95.70;;;;;;4959129;29;20070;-68
2022/10/23 09:44:52;;;;;;;;;;;;;;;;;;4958921;29;20016;-69
2022/10/23 09:47:19;;;;;;;;;;;19.00;96.00;;;;;;4959012;29;19926;-64
2022/10/23 09:49:46;;;;;;;;;;;18.90;96.00;;;;;;4965604;28;20021;-73
2022/10/23 09:52:11;;;;;;;;;;;19.10;96.00;;;;;;4942101;29;19930;-77
2022/10/23 09:54:38;;;;;;;;;;;19.00;96.00;;;;;;4941497;29;20411;-66
2022/10/23 09:57:23;;;;;;;;;;;19.10;96.00;;;;;;4941693;29;19931;-68
2022/10/23 09:59:55;;;;;;;;;;;19.00;96.00;;;;;;4959162;29;19930;-67
2022/10/23 10:02:26;;;;;;;;;;;18.90;95.90;;;;;;4940447;29;19930;-69
2022/10/23 10:04:52;;;;;;;;;;;19.00;96.00;;;;;;4958764;29;19962;-68
2022/10/23 10:07:23;;;;;;;;;;;19.10;96.00;;;;;;4960150;28;19926;-68
2022/10/23 10:09:48;;;;;;;;;;;19.20;96.00;;;;;;4959022;29;19933;-78
2022/10/23 10:12:23;;;;;;;;;;;19.40;96.10;;;;;;4958714;28;19969;-78
2022/10/23 10:14:52;;;;;;;;;;;19.10;96.00;;;;;;4958639;29;19997;-79
2022/10/23 10:17:19;;;;;;;;;;;19.10;96.00;;;;;;4956858;28;19937;-73
2022/10/23 10:19:48;;;;;;;;;;;19.00;96.00;;;;;;4940816;29;20006;-80
2022/10/23 10:22:28;;;;;;;;;;;19.20;96.00;;;;;;4940772;29;19931;-74
2022/10/23 10:25:00;;;;;;;;;;;19.40;96.10;;;;;;4941749;29;19982;-80
2022/10/23 10:27:31;;;;;;;;;;;19.10;96.00;;;;;;4940086;29;20372;-79
2022/10/23 10:30:00;;;;;;;;;;;19.00;95.90;;;;;;4924651;29;19977;-70
2022/10/23 10:32:30;;;;;;;;;;;19.40;96.10;;;;;;4958603;29;19933;-79
2022/10/23 10:35:11;;;;;;;;;;;19.10;96.00;;;;;;4940425;29;19932;-77
2022/10/23 10:37:57;;;;;;;;;;;19.50;96.10;;;;;;4940083;29;19970;-74
2022/10/23 10:40:35;;;;;;;;;;;19.30;96.00;;;;;;4879924;29;19974;-75
2022/10/23 10:43:03;;;;;;;;;;;19.20;96.00;;;;;;4864881;29;19927;-79
2022/10/23 10:45:32;;;;;;;;;;;19.40;96.10;;;;;;4880312;29;19934;-77
2022/10/23 10:48:16;;;;;;;;;;;19.60;96.10;;;;;;4879261;29;19932;-79
2022/10/23 10:50:41;;;;;;;;;;;19.60;96.10;;;;;;4864440;29;20416;-79
2022/10/23 10:53:33;;;;;;;;;;;19.40;96.10;;;;;;4864743;29;19931;-78
2022/10/23 10:56:00;;;;;;;;;;;19.50;96.10;;;;;;4850339;29;19928;-79
2022/10/23 10:58:38;;;;;;;;;;;19.50;96.00;;;;;;4857929;29;20389;-77
2022/10/23 11:01:12;;;;;;;;;;;19.40;96.00;;;;;;4867593;29;20451;-79
2022/10/23 11:03:38;;;;;;;;;;;19.60;96.00;;;;;;4879079;29;19934;-77
2022/10/23 11:06:05;;;;;;;;;;;19.60;96.00;;;;;;4864480;29;19934;-73
2022/10/23 11:08:32;;;;;;;;;;;19.40;95.90;;;;;;4863083;29;19928;-75
2022/10/23 11:11:00;;;;;;;;;;;19.50;95.90;;;;;;4879723;29;19928;-77
2022/10/23 11:13:33;;;;;;;;;;;19.60;96.00;;;;;;4864882;29;19934;-80
2022/10/23 11:16:00;;;;;;;;;;;19.50;95.90;;;;;;4879781;29;20015;-71
2022/10/23 11:18:26;;;;;;;;;;;;;;;;;;4949896;29;19982;-78
2022/10/23 11:20:59;;;;;;;;;;;19.60;95.90;;;;;;4956572;29;19926;-73
2022/10/23 11:23:28;;;;;;;;;;;19.70;96.00;;;;;;4957078;29;19934;-76
2022/10/23 11:26:10;;;;;;;;;;;19.60;95.60;;;;;;4956044;28;19926;-78
2022/10/23 11:28:41;;;;;;;;;;;19.60;95.90;;;;;;4939999;29;19930;-78
2022/10/23 11:31:26;;;;;;;;;;;19.50;95.90;;;;;;4957622;28;20348;-72
2022/10/23 11:34:02;;;;;;;;;;;19.40;95.90;;;;;;4976448;28;19926;-79
2022/10/23 11:36:37;;;;;;;;;;;19.60;96.00;;;;;;4943404;28;19972;-69
2022/10/23 11:39:22;;;;;;;;;;;19.70;96.10;;;;;;4956686;28;20048;-79
2022/10/23 11:41:49;;;;;;;;;;;19.70;96.20;;;;;;4938659;29;19931;-73
2022/10/23 11:44:22;;;;;;;;;;;19.70;96.30;;;;;;4939812;29;20021;-77
2022/10/23 11:46:48;;;;;;;;;;;19.60;96.20;;;;;;4939700;29;19931;-77
2022/10/23 11:49:20;;;;;;;;;;;19.70;96.20;;;;;;4949892;28;20380;-78
2022/10/23 11:51:58;;;;;;;;;;;19.50;96.10;;;;;;4948395;29;20392;-78
2022/10/23 11:54:25;;;;;;;;;;;19.70;96.20;;;;;;4956783;29;19934;-79
2022/10/23 11:56:52;;;;;;;;;;;19.90;96.30;;;;;;4939691;29;19981;-75
2022/10/23 11:59:18;;;;;;;;;;;19.70;96.20;;;;;;4956349;29;19930;-77
2022/10/23 12:01:45;;;;;;;;;;;19.60;96.10;;;;;;4955152;28;19934;-76
2022/10/23 12:04:14;;;;;;;;;;;19.70;96.20;;;;;;4935251;29;20017;-76
2022/10/23 12:06:46;;;;;;;;;;;19.70;96.20;;;;;;4934460;29;19933;-78
2022/10/23 12:09:25;;;;;;;;;;;19.60;96.20;;;;;;4956211;29;19981;-76
2022/10/23 12:12:23;;;;;;;;;;;19.90;96.30;;;;;;4938833;29;19926;-79
2022/10/23 12:14:49;;;;;;;;;;;19.60;96.30;;;;;;4859437;29;19935;-79
2022/10/23 12:17:21;;;;;;;;;;;19.60;96.40;;;;;;4844594;29;19971;-78
2022/10/23 12:19:47;;;;;;;;;;;19.40;96.30;;;;;;4860457;29;20286;-67
2022/10/23 12:22:13;;;;;;;;;;;19.60;96.40;;;;;;4860887;29;20481;-78
2022/10/23 12:24:48;;;;;;;;;;;19.70;96.50;;;;;;4859829;29;19931;-77
2022/10/23 12:27:13;;;;;;;;;;;19.50;96.50;;;;;;4859121;29;19979;-82
2022/10/23 12:29:58;;;;;;;;;;;19.40;96.60;;;;;;4859669;29;19967;-83
2022/10/23 12:32:35;;;;;;;;;;;19.50;96.60;;;;;;4844570;29;19928;-79
2022/10/23 12:35:11;;;;;;;;;;;19.50;96.70;;;;;;4859734;29;20395;-77
2022/10/23 12:37:50;;;;;;;;;;;19.60;96.70;;;;;;4843302;29;20409;-77
2022/10/23 12:40:16;;;;;;;;;;;19.60;96.90;;;;;;4860151;29;19928;-80
2022/10/23 12:42:47;;;;;;;;;;;19.70;96.90;;;;;;4859913;29;20331;-80
2022/10/23 12:45:15;;;;;;;;;;;19.50;96.90;;;;;;4852300;29;20027;-79
2022/10/23 12:47:41;;;;;;;;;;;19.50;97.00;;;;;;4844070;29;19936;-75
2022/10/23 12:50:17;;;;;;;;;;;19.60;97.00;;;;;;4865721;29;19930;-78
2022/10/23 12:53:03;;;;;;;;;;;19.50;97.10;;;;;;4938564;29;19933;-78
2022/10/23 12:55:30;;;;;;;;;;;19.40;97.10;;;;;;4955399;29;19926;-78
2022/10/23 12:57:56;;;;;;;;;;;19.30;96.80;;;;;;4922259;29;19927;-79
2022/10/23 13:00:21;;;;;;;;;;;19.50;97.10;;;;;;4939150;29;19929;-75
2022/10/23 13:03:00;;;;;;;;;;;19.50;97.20;;;;;;4955658;29;19937;-79
2022/10/23 13:05:25;;;;;;;;;;;19.50;97.10;;;;;;4955560;29;20013;-76
2022/10/23 13:07:51;;;;;;;;;;;20.00;97.40;;;;;;4937892;29;20414;-78
2022/10/23 13:10:17;;;;;;;;;;;19.20;97.30;;;;;;4922428;29;20292;-75
2022/10/23 13:12:46;;;;;;;;;;;19.20;97.50;;;;;;4938738;29;19927;-70
2022/10/23 13:15:13;;;;;;;;;;;19.40;97.50;;;;;;4956540;28;19981;-76
2022/10/23 13:17:39;;;;;;;;;;;19.60;97.50;;;;;;4942150;29;19933;-76
2022/10/23 13:20:17;;;;;;;;;;;19.60;97.80;;;;;;4954870;28;20005;-76
2022/10/23 13:22:46;;;;;;;;;;;19.40;97.60;;;;;;4955357;29;19934;-75
2022/10/23 13:25:21;;;;;;;;;;;19.40;97.60;;;;;;4954599;28;20489;-75
2022/10/23 13:27:47;;;;;;;;;;;19.40;97.70;;;;;;4955656;29;19926;-75
2022/10/23 13:30:26;;;;;;;;;;;19.60;97.80;;;;;;4922822;28;19949;-75
2022/10/23 13:32:52;;;;;;;;;;;19.30;97.80;;;;;;4955137;29;19927;-73
2022/10/23 13:35:19;;;;;;;;;;;19.40;97.80;;;;;;4954620;28;19926;-65
2022/10/23 13:37:47;;;;;;;;;;;19.30;98.00;;;;;;4938491;29;20281;-74
2022/10/23 13:40:22;;;;;;;;;;;19.10;97.90;;;;;;4955593;29;19926;-69
2022/10/23 13:42:49;;;;;;;;;;;19.40;98.20;;;;;;4937950;29;19927;-65
2022/10/23 13:45:19;;;;;;;;;;;19.40;98.40;;;;;;4937320;29;19926;-65
2022/10/23 13:47:44;;;;;;;;;;;19.20;98.40;;;;;;4961943;28;20036;-64
2022/10/23 13:50:10;;;;;;;;;;;19.20;98.40;;;;;;4949728;29;19982;-66
2022/10/23 13:52:36;;;;;;;;;;;19.30;98.50;;;;;;4948602;29;19927;-74
2022/10/23 13:55:02;;;;;;;;;;;19.10;98.40;;;;;;4958677;29;19926;-74
2022/10/23 13:57:28;;;;;;;;;;;19.20;98.50;;;;;;4958647;29;19926;-73
2022/10/23 13:59:54;;;;;;;;;;;19.20;98.50;;;;;;4958688;29;19926;-75
2022/10/23 14:02:20;;;;;;;;;;;19.20;98.50;;;;;;4957449;28;20364;-64
2022/10/23 14:04:46;;;;;;;;;;;19.00;98.30;;;;;;4947782;28;19934;-75
2022/10/23 14:07:12;;;;;;;;;;;19.40;98.50;;;;;;4965907;28;19984;-75
2022/10/23 14:09:37;;;;;;;;;;;19.40;98.50;;;;;;4958339;29;19982;-76
2022/10/23 14:12:03;;;;;;;;;;;19.30;98.30;;;;;;4940705;29;19958;-74
2022/10/23 14:14:29;;;;;;;;;;;19.00;98.30;;;;;;4934517;28;20376;-72
2022/10/23 14:16:55;;;;;;;;;;;19.20;98.50;;;;;;4958140;29;20388;-71
2022/10/23 14:19:20;;;;;;;;;;;19.30;98.50;;;;;;4941004;29;19981;-74
2022/10/23 14:21:46;;;;;;;;;;;19.30;98.70;;;;;;4947875;28;20013;-75
2022/10/23 14:24:11;;;;;;;;;;;19.30;98.60;;;;;;4978167;28;20261;-71
2022/10/23 14:26:37;;;;;;;;;;;19.20;98.50;;;;;;4960229;28;19968;-72
2022/10/23 14:29:03;;;;;;;;;;;19.20;98.50;;;;;;4959875;28;19926;-76